Portada
METAR-TAF:

METAR-TAF

Aeroports :

Puerto Limón, Costa Rica

latitud: 10-00N, longitud: 083-03W, altitud: 5 m

Observació

L'informe es va fer fa 1 hora i 6 minuts, a les 17:00 UTC
Vent 5 kt del Est/Nord-Est
Temperatura 29°C
Humitat 70%
Pressió 1016 hPa
Visibilitat 10 km o més
Escasses núvols a una alçada de 2500 ft

METAR: MRLM 311700Z 06005KT 9999 FEW025 29/23 A2999

Hora: 12:06 (18:06 UTC)

Pronòstic

L'informe es va fer fa 39 minuts, a les 17:27 UTC
Pronòstic vàlid del 31 a les 18 UTC al 01 a les 18 UTC
Vent 6 kt del Nord-Est
Visibilitat 10 km o més
Escasses núvols a una alçada de 2000 ft
Cel ennuvolat a una alçada de 10000 ft
Evolucionant progressivament
l' 01 a les 00 UTC al 01 a les 03 UTC
Vent 5 kt del Oest/Sud-Oest
Evolucionant progressivament
l' 01 a les 14 UTC al 01 a les 16 UTC
Vent 6 kt del Est/Nord-Est

TAF: MRLM 311727Z 3118/0118 05006KT 9999 FEW020 BKN100 TX30/3119Z TN20/0111Z BECMG 0100/0103 25005KT BECMG 0114/0116 06006KT

Observacions i pronòstics meteorològics de més de 4000 aeroports (METAR i TAF).

Les estacions disponibles són els punts grocs i vermells al mapa.

Posi el ratolí al punt desitjat per veure el nom de l'estació.

Feu clic per veure les observacions i els pronòstics meteorològics.

Per canviar el mapa: feu clic els botons verds amb una creu de color negre per apropar; al botó verd amb un guió per allunyar la imatge; o en les fletxes verdes per a mapes adjacents.


METAR-TAF: